createdAt,value
2023-05-20T00:01:49.225Z,66.34
2023-05-20T00:04:16.222Z,66.23
2023-05-20T00:06:42.954Z,66.66
2023-05-20T00:09:10.137Z,65.96
2023-05-20T00:11:36.976Z,66.58
2023-05-20T00:14:03.704Z,67.39
2023-05-20T00:16:30.426Z,66.94
2023-05-20T00:18:57.451Z,67.39
2023-05-20T00:21:24.229Z,67.05
2023-05-20T00:23:51.258Z,66.88
2023-05-20T00:26:17.838Z,66.58
2023-05-20T00:28:44.557Z,67.42
2023-05-20T00:31:11.187Z,66.87
2023-05-20T00:33:38.006Z,66.78
2023-05-20T00:36:05.096Z,66.74
2023-05-20T00:38:31.695Z,67.27
2023-05-20T00:40:58.299Z,67.71
2023-05-20T00:43:25.565Z,67.30
2023-05-20T00:45:54.158Z,68.18
2023-05-20T00:48:22.276Z,68.26
2023-05-20T00:50:50.567Z,68.49
2023-05-20T00:53:21.536Z,68.15
2023-05-20T00:55:48.622Z,68.30
2023-05-20T00:58:15.497Z,68.95
2023-05-20T01:00:42.924Z,69.08
2023-05-20T01:03:11.020Z,69.66
2023-05-20T01:05:39.849Z,70.79
2023-05-20T01:08:08.353Z,70.80
2023-05-20T01:10:39.365Z,71.27
2023-05-20T01:13:11.596Z,71.35
2023-05-20T01:15:41.035Z,70.84
2023-05-20T01:18:10.833Z,71.13
2023-05-20T01:20:37.974Z,72.25
2023-05-20T01:23:04.689Z,71.69
2023-05-20T01:25:31.425Z,72.92
2023-05-20T01:27:58.765Z,72.27
2023-05-20T01:30:41.502Z,72.56
2023-05-20T01:33:12.411Z,72.69
2023-05-20T01:35:41.488Z,72.29
2023-05-20T01:38:08.705Z,72.27
2023-05-20T01:40:36.257Z,72.41
2023-05-20T01:43:03.511Z,73.23
2023-05-20T01:45:31.347Z,73.42
2023-05-20T01:47:58.082Z,72.84
2023-05-20T01:50:24.809Z,72.79
2023-05-20T01:52:51.582Z,73.13
2023-05-20T01:55:18.405Z,73.28
2023-05-20T01:57:45.100Z,73.14
2023-05-20T02:00:12.265Z,73.56
2023-05-20T02:02:39.165Z,73.33
2023-05-20T02:05:06.115Z,73.84
2023-05-20T02:07:32.857Z,74.28
2023-05-20T02:09:59.552Z,74.59
2023-05-20T02:12:26.387Z,74.19
2023-05-20T02:14:53.007Z,74.85
2023-05-20T02:17:20.044Z,75.11
2023-05-20T02:19:47.353Z,74.69
2023-05-20T02:22:14.458Z,74.67
2023-05-20T02:24:41.695Z,74.30
2023-05-20T02:27:08.413Z,74.79
2023-05-20T02:29:35.325Z,75.75
2023-05-20T02:32:01.960Z,75.57
2023-05-20T02:34:30.438Z,76.61
2023-05-20T02:36:57.392Z,76.63
2023-05-20T02:39:24.112Z,77.00
2023-05-20T02:41:50.791Z,77.24
2023-05-20T02:44:18.182Z,77.83
2023-05-20T02:46:44.942Z,78.25
2023-05-20T02:49:11.786Z,78.06
2023-05-20T02:51:38.668Z,78.83
2023-05-20T02:54:05.528Z,78.70
2023-05-20T02:56:32.542Z,78.90
2023-05-20T02:58:59.291Z,78.49
2023-05-20T03:01:25.987Z,79.49
2023-05-20T03:03:52.898Z,79.21
2023-05-20T03:06:19.629Z,78.72
2023-05-20T03:08:46.322Z,79.18
2023-05-20T03:11:13.007Z,79.33
2023-05-20T03:13:42.641Z,80.22
2023-05-20T03:16:09.567Z,80.05
2023-05-20T03:18:37.705Z,80.05
2023-05-20T03:21:04.599Z,79.13
2023-05-20T03:23:31.262Z,79.74
2023-05-20T03:25:58.262Z,79.92
2023-05-20T03:28:24.850Z,79.98
2023-05-20T03:30:51.796Z,79.36
2023-05-20T03:33:18.478Z,79.71
2023-05-20T03:35:45.119Z,80.48
2023-05-20T03:38:11.813Z,80.34
2023-05-20T03:40:38.788Z,80.58
2023-05-20T03:43:05.645Z,80.80
2023-05-20T03:45:33.998Z,81.23
2023-05-20T03:48:00.897Z,81.59
2023-05-20T03:50:27.733Z,81.78
2023-05-20T03:52:54.498Z,81.38
2023-05-20T03:55:21.390Z,81.12
2023-05-20T03:57:48.056Z,81.24
2023-05-20T04:00:14.961Z,81.35
2023-05-20T04:02:42.032Z,81.66
2023-05-20T04:05:10.700Z,81.86
2023-05-20T04:07:37.635Z,81.15
2023-05-20T04:10:05.422Z,81.38
2023-05-20T04:12:32.780Z,81.78
2023-05-20T04:15:01.392Z,82.24
2023-05-20T04:17:30.185Z,81.58
2023-05-20T04:19:59.887Z,82.11
2023-05-20T04:22:27.203Z,82.22
2023-05-20T04:24:53.971Z,82.15
2023-05-20T04:27:21.680Z,82.39
2023-05-20T04:29:48.666Z,82.60
2023-05-20T04:32:18.902Z,82.98
2023-05-20T04:34:46.332Z,82.81
2023-05-20T04:37:13.937Z,82.86
2023-05-20T04:39:40.664Z,83.95
2023-05-20T04:42:07.417Z,83.76
2023-05-20T04:44:34.537Z,83.25
2023-05-20T04:47:01.585Z,82.75
2023-05-20T04:49:30.023Z,83.43
2023-05-20T04:52:00.882Z,83.26
2023-05-20T04:54:27.785Z,82.78
2023-05-20T04:56:54.474Z,82.96
2023-05-20T04:59:21.494Z,83.01
2023-05-20T05:01:48.224Z,82.45
2023-05-20T05:04:14.943Z,82.46
2023-05-20T05:06:41.751Z,82.05
2023-05-20T05:09:08.896Z,81.43
2023-05-20T05:11:35.764Z,79.95
2023-05-20T05:14:02.446Z,77.48
2023-05-20T05:16:29.158Z,75.71
2023-05-20T05:18:56.117Z,73.40
2023-05-20T05:21:22.795Z,72.52
2023-05-20T05:23:49.486Z,71.94
2023-05-20T05:26:16.256Z,68.46
2023-05-20T05:28:45.550Z,68.90
2023-05-20T05:31:12.164Z,67.68
2023-05-20T05:33:39.172Z,64.99
2023-05-20T05:36:06.596Z,66.06
2023-05-20T05:38:33.355Z,64.61
2023-05-20T05:41:00.062Z,63.63
2023-05-20T05:43:26.813Z,63.01
2023-05-20T05:45:53.497Z,61.99
2023-05-20T05:48:20.398Z,61.91
2023-05-20T05:50:47.346Z,61.35
2023-05-20T05:53:14.123Z,60.63
2023-05-20T05:55:40.881Z,59.93
2023-05-20T05:58:07.702Z,58.52
2023-05-20T06:00:34.508Z,59.38
2023-05-20T06:03:01.528Z,61.12
2023-05-20T06:05:29.811Z,60.48
2023-05-20T06:07:56.795Z,61.00
2023-05-20T06:10:23.769Z,61.02
2023-05-20T06:12:50.529Z,60.48
2023-05-20T06:15:18.449Z,59.57
2023-05-20T06:17:45.243Z,58.15
2023-05-20T06:20:12.482Z,57.93
2023-05-20T06:22:39.318Z,55.21
2023-05-20T06:25:06.521Z,54.58
2023-05-20T06:27:33.393Z,55.51
2023-05-20T06:30:00.351Z,53.77
2023-05-20T06:32:27.958Z,53.81
2023-05-20T06:34:54.617Z,53.13
2023-05-20T06:37:24.398Z,53.72
2023-05-20T06:39:54.063Z,53.12
2023-05-20T06:42:21.638Z,53.25
2023-05-20T06:44:48.384Z,53.37
2023-05-20T06:47:16.908Z,52.27
2023-05-20T06:49:47.163Z,52.68
2023-05-20T06:52:14.449Z,52.30
2023-05-20T06:54:41.839Z,52.48
2023-05-20T06:57:09.406Z,51.21
2023-05-20T06:59:37.361Z,50.63
2023-05-20T07:02:04.290Z,50.57
2023-05-20T07:04:31.105Z,50.28
2023-05-20T07:06:57.816Z,49.93
2023-05-20T07:09:24.834Z,50.08
2023-05-20T07:11:51.589Z,49.41
2023-05-20T07:14:18.293Z,50.31
2023-05-20T07:16:44.953Z,51.80
2023-05-20T07:19:11.909Z,50.48
2023-05-20T07:21:38.941Z,51.28
2023-05-20T07:24:06.004Z,52.41
2023-05-20T07:26:36.363Z,52.73
2023-05-20T07:29:05.916Z,52.24
2023-05-20T07:31:32.666Z,52.51
2023-05-20T07:33:59.391Z,52.56
2023-05-20T07:36:29.685Z,52.41
2023-05-20T07:39:03.084Z,52.49
2023-05-20T07:41:32.140Z,52.71
2023-05-20T07:43:58.754Z,52.70
2023-05-20T07:46:25.552Z,52.63
2023-05-20T07:48:52.220Z,51.32
2023-05-20T07:51:19.129Z,49.91
2023-05-20T07:53:45.846Z,50.06
2023-05-20T07:56:12.628Z,48.14
2023-05-20T07:58:42.224Z,48.09
2023-05-20T08:01:09.886Z,47.59
2023-05-20T08:03:36.987Z,48.26
2023-05-20T08:06:03.946Z,47.57
2023-05-20T08:08:30.858Z,47.78
2023-05-20T08:10:57.452Z,48.04
2023-05-20T08:13:24.777Z,49.34
2023-05-20T08:15:55.655Z,48.20
2023-05-20T08:18:23.106Z,46.03
2023-05-20T08:20:50.995Z,45.88
2023-05-20T08:23:17.702Z,47.35
2023-05-20T08:25:46.931Z,48.83
2023-05-20T08:28:13.749Z,49.40
2023-05-20T08:30:41.486Z,50.73
2023-05-20T08:33:11.246Z,52.05
2023-05-20T08:35:39.633Z,52.76
2023-05-20T08:38:07.865Z,51.83
2023-05-20T08:40:37.558Z,51.29
2023-05-20T08:43:04.751Z,51.05
2023-05-20T08:45:33.797Z,51.80
2023-05-20T08:48:01.732Z,52.18
2023-05-20T08:50:28.411Z,52.71
2023-05-20T08:52:55.229Z,52.14
2023-05-20T08:55:42.121Z,52.45
2023-05-20T08:58:10.207Z,52.75
2023-05-20T09:00:37.487Z,52.35
2023-05-20T09:03:05.537Z,52.66
2023-05-20T09:05:32.407Z,53.65
2023-05-20T09:08:10.365Z,53.57
2023-05-20T09:10:41.681Z,53.24
2023-05-20T09:13:10.620Z,52.99
2023-05-20T09:15:37.789Z,50.97
2023-05-20T09:18:06.117Z,50.45
2023-05-20T09:20:35.185Z,50.86
2023-05-20T09:23:05.651Z,50.90
2023-05-20T09:25:34.444Z,50.47
2023-05-20T09:28:01.359Z,51.13
2023-05-20T09:30:28.122Z,50.49
2023-05-20T09:32:56.987Z,51.41
2023-05-20T09:35:26.435Z,51.85
2023-05-20T09:37:55.007Z,52.13
2023-05-20T09:40:26.235Z,50.50
2023-05-20T09:42:58.531Z,50.69
2023-05-20T09:45:25.318Z,51.63
2023-05-20T09:47:55.131Z,52.42
2023-05-20T09:50:23.497Z,52.31
2023-05-20T09:52:52.413Z,52.39
2023-05-20T09:55:21.936Z,53.27
2023-05-20T09:57:49.149Z,53.62
2023-05-20T10:00:20.039Z,53.98
2023-05-20T10:02:49.133Z,54.20
2023-05-20T10:05:30.221Z,54.16
2023-05-20T10:08:20.907Z,53.98
2023-05-20T10:11:16.827Z,54.04
2023-05-20T10:14:09.146Z,55.03
2023-05-20T10:16:50.681Z,54.97
2023-05-20T10:19:32.756Z,54.32
2023-05-20T10:22:11.424Z,54.28
2023-05-20T10:24:43.519Z,54.69
2023-05-20T10:27:14.321Z,54.69
2023-05-20T10:29:55.098Z,55.23
2023-05-20T10:32:29.982Z,53.58
2023-05-20T10:35:01.889Z,54.69
2023-05-20T10:37:30.829Z,54.90
2023-05-20T10:40:11.638Z,54.73
2023-05-20T10:42:39.105Z,55.17
2023-05-20T10:45:11.697Z,55.00
2023-05-20T10:47:54.125Z,55.17
2023-05-20T10:50:50.528Z,55.42
2023-05-20T10:53:29.655Z,55.29
2023-05-20T10:55:59.968Z,55.40
2023-05-20T10:58:26.785Z,55.62
2023-05-20T11:00:55.000Z,55.75
2023-05-20T11:03:23.119Z,55.69
2023-05-20T11:05:50.716Z,55.50
2023-05-20T11:08:28.700Z,55.63
2023-05-20T11:10:59.163Z,55.70
2023-05-20T11:13:26.349Z,55.45
2023-05-20T11:15:53.412Z,55.00
2023-05-20T11:18:20.523Z,54.51
2023-05-20T11:20:47.437Z,54.23
2023-05-20T11:23:15.485Z,53.71
2023-05-20T11:25:42.122Z,53.95
2023-05-20T11:28:14.570Z,53.90
2023-05-20T11:30:43.312Z,53.73
2023-05-20T11:33:13.258Z,54.17
2023-05-20T11:35:52.043Z,54.58
2023-05-20T11:38:20.355Z,53.92
2023-05-20T11:40:52.007Z,53.15
2023-05-20T11:43:20.146Z,53.28
2023-05-20T11:45:48.124Z,54.14
2023-05-20T11:48:17.972Z,54.18
2023-05-20T11:50:46.792Z,54.88
2023-05-20T11:53:18.850Z,55.75
2023-05-20T11:55:49.350Z,56.30
2023-05-20T11:58:24.207Z,56.59
2023-05-20T12:00:57.077Z,56.74
2023-05-20T12:03:33.177Z,56.80
2023-05-20T12:06:12.045Z,57.29
2023-05-20T12:08:39.028Z,57.53
2023-05-20T12:11:05.841Z,57.23
2023-05-20T12:13:34.988Z,57.66
2023-05-20T12:16:02.188Z,58.27
2023-05-20T12:18:28.986Z,58.21
2023-05-20T12:20:55.671Z,58.36
2023-05-20T12:23:22.312Z,58.40
2023-05-20T12:25:50.177Z,58.47
2023-05-20T12:28:17.841Z,58.67
2023-05-20T12:30:44.514Z,58.48
2023-05-20T12:33:11.131Z,58.92
2023-05-20T12:35:41.002Z,59.00
2023-05-20T12:38:08.315Z,59.14
2023-05-20T12:40:35.791Z,58.10
2023-05-20T12:43:04.833Z,57.83
2023-05-20T12:45:31.904Z,56.50
2023-05-20T12:47:59.384Z,56.26
2023-05-20T12:50:26.750Z,55.89
2023-05-20T12:52:53.598Z,55.34
2023-05-20T12:55:20.426Z,55.14
2023-05-20T12:57:47.657Z,54.59
2023-05-20T13:00:16.114Z,54.94
2023-05-20T13:02:43.973Z,55.48
2023-05-20T13:05:12.404Z,55.52
2023-05-20T13:07:42.231Z,55.27
2023-05-20T13:10:10.978Z,55.74
2023-05-20T13:12:38.286Z,55.30
2023-05-20T13:15:06.648Z,55.60
2023-05-20T13:17:33.488Z,55.43
2023-05-20T13:20:00.231Z,55.70
2023-05-20T13:22:26.946Z,56.07
2023-05-20T13:24:53.639Z,56.00
2023-05-20T13:27:20.361Z,55.47
2023-05-20T13:29:47.155Z,55.42
2023-05-20T13:32:13.899Z,55.86
2023-05-20T13:34:43.661Z,55.90
2023-05-20T13:37:10.877Z,55.53
2023-05-20T13:39:37.648Z,54.99
2023-05-20T13:42:04.478Z,54.14
2023-05-20T13:44:32.564Z,54.17
2023-05-20T13:46:59.607Z,53.85
2023-05-20T13:49:26.332Z,53.22
2023-05-20T13:51:53.078Z,52.77
2023-05-20T13:54:21.716Z,52.75
2023-05-20T13:56:48.701Z,53.31
2023-05-20T13:59:15.468Z,52.33
2023-05-20T14:01:45.695Z,52.91
2023-05-20T14:04:13.082Z,52.79
2023-05-20T14:06:40.628Z,52.58
2023-05-20T14:09:10.978Z,52.50
2023-05-20T14:11:37.746Z,52.29
2023-05-20T14:14:04.487Z,51.86
2023-05-20T14:16:31.987Z,51.52
2023-05-20T14:18:58.960Z,51.00
2023-05-20T14:21:25.882Z,50.05
2023-05-20T14:23:52.573Z,49.65
2023-05-20T14:26:19.305Z,49.48
2023-05-20T14:28:46.124Z,49.08
2023-05-20T14:31:12.922Z,49.22
2023-05-20T14:33:39.689Z,48.97
2023-05-20T14:36:06.836Z,48.45
2023-05-20T14:38:33.629Z,48.63
2023-05-20T14:41:00.456Z,48.17
2023-05-20T14:43:27.264Z,47.82
2023-05-20T14:45:53.986Z,47.41
2023-05-20T14:48:20.801Z,46.95
2023-05-20T14:50:49.005Z,47.74
2023-05-20T14:53:17.307Z,47.25
2023-05-20T14:55:44.097Z,47.03
2023-05-20T14:58:12.366Z,47.92
2023-05-20T15:00:39.501Z,48.19
2023-05-20T15:03:06.541Z,48.15
2023-05-20T15:05:33.597Z,47.41
2023-05-20T15:08:00.616Z,48.47
2023-05-20T15:10:27.174Z,46.57
2023-05-20T15:12:53.917Z,47.53
2023-05-20T15:15:21.597Z,47.93
2023-05-20T15:17:48.478Z,47.12
2023-05-20T15:20:15.170Z,47.17
2023-05-20T15:22:44.151Z,47.32
2023-05-20T15:25:10.893Z,46.87
2023-05-20T15:27:37.676Z,47.44
2023-05-20T15:30:04.768Z,48.01
2023-05-20T15:32:31.552Z,48.35
2023-05-20T15:34:58.531Z,48.46
2023-05-20T15:37:25.161Z,48.69
2023-05-20T15:39:51.936Z,49.39
2023-05-20T15:42:18.837Z,49.59
2023-05-20T15:44:45.930Z,50.12
2023-05-20T15:47:12.846Z,51.02
2023-05-20T15:49:39.690Z,50.62
2023-05-20T15:52:06.654Z,51.18
2023-05-20T15:54:33.319Z,50.81
2023-05-20T15:57:00.170Z,51.31
2023-05-20T15:59:26.917Z,51.47
2023-05-20T16:01:53.739Z,51.83
2023-05-20T16:04:20.838Z,52.09
2023-05-20T16:06:47.815Z,51.80
2023-05-20T16:09:14.532Z,52.12
2023-05-20T16:11:41.208Z,52.16
2023-05-20T16:14:07.851Z,52.16
2023-05-20T16:16:36.238Z,52.31
2023-05-20T16:19:03.398Z,52.85
2023-05-20T16:21:30.246Z,52.98
2023-05-20T16:23:56.957Z,53.05
2023-05-20T16:26:24.863Z,53.30
2023-05-20T16:28:51.562Z,53.41
2023-05-20T16:31:18.329Z,52.66
2023-05-20T16:33:45.024Z,52.45
2023-05-20T16:36:12.166Z,52.16
2023-05-20T16:38:39.289Z,51.22
2023-05-20T16:41:06.083Z,50.59
2023-05-20T16:43:32.742Z,49.64
2023-05-20T16:45:59.686Z,49.76
2023-05-20T16:48:26.835Z,49.76
2023-05-20T16:50:53.639Z,49.84
2023-05-20T16:53:20.763Z,49.80
2023-05-20T16:55:47.809Z,49.57
2023-05-20T16:58:14.543Z,49.66
2023-05-20T17:00:41.660Z,49.86
2023-05-20T17:03:08.451Z,49.48
2023-05-20T17:05:35.159Z,49.66
2023-05-20T17:08:02.081Z,49.86
2023-05-20T17:10:29.654Z,50.13
2023-05-20T17:12:56.498Z,50.05
2023-05-20T17:15:23.797Z,50.00
2023-05-20T17:17:50.818Z,49.87
2023-05-20T17:20:17.707Z,49.67
2023-05-20T17:22:44.550Z,50.06
2023-05-20T17:25:11.489Z,50.53
2023-05-20T17:27:38.393Z,50.40
2023-05-20T17:30:05.753Z,50.14
2023-05-20T17:32:32.530Z,50.21
2023-05-20T17:34:59.339Z,50.13
2023-05-20T17:37:26.209Z,50.39
2023-05-20T17:39:52.914Z,50.48
2023-05-20T17:42:19.612Z,50.49
2023-05-20T17:44:46.601Z,50.39
2023-05-20T17:47:13.492Z,50.32
2023-05-20T17:49:43.360Z,50.83
2023-05-20T17:52:11.118Z,50.68
2023-05-20T17:54:37.854Z,50.66
2023-05-20T17:57:04.673Z,50.25
2023-05-20T17:59:33.900Z,50.39
2023-05-20T18:02:01.219Z,50.65
2023-05-20T18:04:28.524Z,50.56
2023-05-20T18:06:55.170Z,50.81
2023-05-20T18:09:21.848Z,50.75
2023-05-20T18:11:48.511Z,51.02
2023-05-20T18:14:18.696Z,51.35
2023-05-20T18:16:45.539Z,51.52
2023-05-20T18:19:12.254Z,51.78
2023-05-20T18:21:39.145Z,52.27
2023-05-20T18:24:06.160Z,52.59
2023-05-20T18:26:33.459Z,52.79
2023-05-20T18:29:00.066Z,52.77
2023-05-20T18:31:27.092Z,53.00
2023-05-20T18:33:53.888Z,53.27
2023-05-20T18:36:20.742Z,53.31
2023-05-20T18:38:47.590Z,53.43
2023-05-20T18:41:14.406Z,53.75
2023-05-20T18:43:41.232Z,53.65
2023-05-20T18:46:07.915Z,53.90
2023-05-20T18:48:34.606Z,54.72
2023-05-20T18:51:01.297Z,55.25
2023-05-20T18:53:27.957Z,55.53
2023-05-20T18:55:56.125Z,55.99
2023-05-20T18:58:22.820Z,56.07
2023-05-20T19:00:49.645Z,56.33
2023-05-20T19:03:17.101Z,56.35
2023-05-20T19:05:43.916Z,56.95
2023-05-20T19:08:10.729Z,57.73
2023-05-20T19:10:37.362Z,57.59
2023-05-20T19:13:04.024Z,58.23
2023-05-20T19:15:31.297Z,58.65
2023-05-20T19:17:58.025Z,59.16
2023-05-20T19:20:26.137Z,58.73
2023-05-20T19:22:53.272Z,58.51
2023-05-20T19:25:20.106Z,58.63
2023-05-20T19:27:46.802Z,58.25
2023-05-20T19:30:13.573Z,58.08
2023-05-20T19:32:40.952Z,58.50
2023-05-20T19:35:11.605Z,58.64
2023-05-20T19:37:38.455Z,58.64
2023-05-20T19:40:06.718Z,58.75
2023-05-20T19:42:33.484Z,58.95
2023-05-20T19:45:00.059Z,58.99
2023-05-20T19:47:27.197Z,59.46
2023-05-20T19:49:54.900Z,59.57
2023-05-20T19:52:21.545Z,59.62
2023-05-20T19:54:48.280Z,59.75
2023-05-20T19:57:14.892Z,59.56
2023-05-20T19:59:41.837Z,59.83
2023-05-20T20:02:09.073Z,59.90
2023-05-20T20:04:36.207Z,60.09
2023-05-20T20:07:03.547Z,60.25
2023-05-20T20:09:30.337Z,60.11
2023-05-20T20:11:57.570Z,60.24
2023-05-20T20:14:25.344Z,60.32
2023-05-20T20:16:52.313Z,60.55
2023-05-20T20:19:22.832Z,60.60
2023-05-20T20:21:53.102Z,60.62
2023-05-20T20:24:20.408Z,60.82
2023-05-20T20:26:47.599Z,60.87
2023-05-20T20:29:14.959Z,61.37
2023-05-20T20:31:41.869Z,61.76
2023-05-20T20:34:10.915Z,61.44
2023-05-20T20:36:37.631Z,61.85
2023-05-20T20:39:07.000Z,61.68
2023-05-20T20:41:33.696Z,62.19
2023-05-20T20:44:03.574Z,62.18
2023-05-20T20:46:31.098Z,62.11
2023-05-20T20:48:58.009Z,62.53
2023-05-20T20:51:24.784Z,62.52
2023-05-20T20:53:52.530Z,62.72
2023-05-20T20:56:19.283Z,62.63
2023-05-20T20:58:46.432Z,62.63
2023-05-20T21:01:17.706Z,62.89
2023-05-20T21:03:45.143Z,62.72
2023-05-20T21:06:15.149Z,62.77
2023-05-20T21:08:42.682Z,63.00
2023-05-20T21:11:09.530Z,62.96
2023-05-20T21:13:37.683Z,62.99
2023-05-20T21:16:06.724Z,62.92
2023-05-20T21:18:33.397Z,62.93
2023-05-20T21:21:00.395Z,63.18
2023-05-20T21:23:27.181Z,63.01
2023-05-20T21:25:53.843Z,63.17
2023-05-20T21:28:20.842Z,63.31
2023-05-20T21:30:47.460Z,63.34
2023-05-20T21:33:14.233Z,63.50
2023-05-20T21:35:40.881Z,63.44
2023-05-20T21:38:07.525Z,63.69
2023-05-20T21:40:34.111Z,63.50
2023-05-20T21:43:00.850Z,63.39
2023-05-20T21:45:27.524Z,63.33
2023-05-20T21:47:54.318Z,63.77
2023-05-20T21:50:21.161Z,63.83
2023-05-20T21:52:47.883Z,63.83
2023-05-20T21:55:14.712Z,64.00
2023-05-20T21:57:41.641Z,64.24
2023-05-20T22:00:15.199Z,64.37
2023-05-20T22:02:42.145Z,64.41
2023-05-20T22:05:09.407Z,64.46
2023-05-20T22:07:36.320Z,64.37
2023-05-20T22:10:03.720Z,64.49
2023-05-20T22:12:30.956Z,65.03
2023-05-20T22:14:57.740Z,65.15
2023-05-20T22:17:24.983Z,64.89
2023-05-20T22:19:52.009Z,65.24
2023-05-20T22:22:19.725Z,65.32
2023-05-20T22:24:46.426Z,65.47
2023-05-20T22:27:13.157Z,65.37
2023-05-20T22:29:40.667Z,65.91
2023-05-20T22:32:07.419Z,65.93
2023-05-20T22:34:34.130Z,66.03
2023-05-20T22:37:00.919Z,66.10
2023-05-20T22:39:27.628Z,66.37
2023-05-20T22:41:54.583Z,66.33
2023-05-20T22:44:21.548Z,66.37
2023-05-20T22:46:48.230Z,66.31
2023-05-20T22:49:15.590Z,66.65
2023-05-20T22:51:42.775Z,66.50
2023-05-20T22:54:09.736Z,66.75
2023-05-20T22:56:36.444Z,66.93
2023-05-20T22:59:03.361Z,66.88
2023-05-20T23:01:30.064Z,67.16
2023-05-20T23:03:56.853Z,67.38
2023-05-20T23:06:23.569Z,67.35
2023-05-20T23:08:50.267Z,67.42
2023-05-20T23:11:16.863Z,67.68
2023-05-20T23:13:43.678Z,67.58
2023-05-20T23:16:13.309Z,68.01
2023-05-20T23:18:43.791Z,67.94
2023-05-20T23:21:10.726Z,68.18
2023-05-20T23:23:37.506Z,68.36
2023-05-20T23:26:05.255Z,68.51
2023-05-20T23:28:32.172Z,68.84
2023-05-20T23:30:59.207Z,68.72
2023-05-20T23:33:26.115Z,68.53
2023-05-20T23:35:53.213Z,68.78
2023-05-20T23:38:19.909Z,68.91
2023-05-20T23:40:46.559Z,68.96
2023-05-20T23:43:13.430Z,69.12
2023-05-20T23:45:41.096Z,69.08
2023-05-20T23:48:11.217Z,69.40
2023-05-20T23:50:38.205Z,69.48
2023-05-20T23:53:05.803Z,69.51
2023-05-20T23:55:32.507Z,69.61
2023-05-20T23:57:59.189Z,69.88
